Time;durP1;ratioP1;P1;durP2;ratioP2;P2;SDS_P1;SDS_P2;PMS_P1;PMS_P2;Temp;Humidity;BMP_temperature;BMP_pressure;BME280_temperature;BME280_humidity;BME280_pressure;Samples;Min_cycle;Max_cycle;Signal;HPM_P1;HPM_P2
2022/01/07 00:01:09;;;;;;;53.20;16.73;;;;;;;-5.59;100.00;100091.47;5098440;28;20056;-75
2022/01/07 00:03:53;;;;;;;40.03;15.50;;;;;;;-5.50;100.00;100106.34;5099170;28;20348;-75
2022/01/07 00:06:38;;;;;;;37.47;12.65;;;;;;;-5.49;100.00;100111.53;5098487;28;20075;-75
2022/01/07 00:09:22;;;;;;;40.90;14.80;;;;;;;-5.47;100.00;100101.38;5084092;28;20071;-75
2022/01/07 00:12:07;;;;;;;34.58;14.13;;;;;;;-5.47;100.00;100099.69;5098301;28;20101;-75
2022/01/07 00:14:52;;;;;;;36.33;14.15;;;;;;;-5.44;100.00;100096.41;5098188;28;20036;-75
2022/01/07 00:17:37;;;;;;;39.40;14.88;;;;;;;-5.44;100.00;100096.41;5098095;28;20036;-75
2022/01/07 00:20:21;;;;;;;36.17;15.50;;;;;;;-5.41;100.00;100105.06;5098084;28;20040;-75
2022/01/07 00:23:06;;;;;;;43.25;17.08;;;;;;;-5.46;100.00;100096.34;5083999;28;20036;-75
2022/01/07 00:25:51;;;;;;;36.17;14.38;;;;;;;-5.47;100.00;100097.13;5097980;28;20032;-75
2022/01/07 00:28:35;;;;;;;42.58;15.25;;;;;;;-5.54;100.00;100094.25;5083700;28;20044;-75
2022/01/07 00:31:19;;;;;;;35.45;14.38;;;;;;;-5.55;100.00;100088.28;5097342;28;20097;-75
2022/01/07 00:34:04;;;;;;;33.70;11.93;;;;;;;-5.61;100.00;100082.03;5097932;28;20040;-75
2022/01/07 00:36:48;;;;;;;34.72;13.13;;;;;;;-5.69;100.00;100077.47;5069381;28;20135;-75
2022/01/07 00:39:32;;;;;;;37.55;13.52;;;;;;;-5.69;100.00;100089.34;5098435;28;20044;-75
2022/01/07 00:42:16;;;;;;;32.67;12.10;;;;;;;-5.75;100.00;100079.75;5083405;28;20040;-75
2022/01/07 00:45:01;;;;;;;40.58;13.48;;;;;;;-5.77;100.00;100086.44;5097652;28;20109;-75
2022/01/07 00:47:46;;;;;;;30.92;12.45;;;;;;;-5.73;100.00;100087.47;5083382;28;20036;-75
2022/01/07 00:50:32;;;;;;;27.23;11.00;;;;;;;-5.74;100.00;100080.63;5083400;28;20433;-75
2022/01/07 00:53:17;;;;;;;32.38;11.93;;;;;;;-5.94;100.00;100047.47;5097315;28;20059;-75
2022/01/07 00:56:02;;;;;;;30.38;13.30;;;;;;;-5.73;100.00;100085.78;5098419;28;20036;-75
2022/01/07 00:58:46;;;;;;;31.25;12.55;;;;;;;-5.74;100.00;100078.94;5097948;28;20043;-75
2022/01/07 01:01:31;;;;;;;32.55;10.82;;;;;;;-5.75;100.00;100089.06;5098145;28;20044;-75
2022/01/07 01:04:16;;;;;;;34.15;11.60;;;;;;;-5.85;100.00;100089.47;5098101;28;20040;-74
2022/01/07 01:07:00;;;;;;;31.45;12.32;;;;;;;-5.90;100.00;100092.69;5097415;28;20052;-75
2022/01/07 01:09:44;;;;;;;30.98;12.27;;;;;;;-5.91;100.00;100090.06;5097228;28;20081;-75
2022/01/07 01:12:29;;;;;;;37.47;13.32;;;;;;;-5.97;100.00;100090.69;5098018;28;20093;-75
2022/01/07 01:15:16;;;;;;;34.97;13.27;;;;;;;-5.95;100.00;100091.63;5097145;28;20040;-75
2022/01/07 01:18:01;;;;;;;33.63;14.25;;;;;;;-5.99;100.00;100087.19;5097056;28;20051;-75
2022/01/07 01:20:45;;;;;;;38.42;12.27;;;;;;;-6.10;100.00;100070.53;5096795;28;20051;-75
2022/01/07 01:23:29;;;;;;;29.08;11.25;;;;;;;-5.99;100.00;100091.44;5097057;28;20047;-75
2022/01/07 01:26:14;;;;;;;27.08;10.15;;;;;;;-6.09;100.00;100084.16;5096881;28;20352;-75
2022/01/07 01:28:59;;;;;;;28.92;10.68;;;;;;;-6.16;100.00;100076.22;5096838;28;20047;-75
2022/01/07 01:31:43;;;;;;;33.88;11.82;;;;;;;-6.12;100.00;100093.41;5097428;28;20063;-75
2022/01/07 01:34:27;;;;;;;26.35;10.50;;;;;;;-6.12;100.00;100095.09;5097529;28;20043;-75
2022/01/07 01:37:12;;;;;;;25.65;9.40;;;;;;;-6.10;100.00;100087.53;5096877;28;20048;-75
2022/01/07 01:39:58;;;;;;;26.58;10.30;;;;;;;-6.10;100.00;100095.19;5096536;28;20048;-75
2022/01/07 01:42:42;;;;;;;31.15;10.75;;;;;;;-6.04;100.00;100101.44;5096129;28;20040;-75
2022/01/07 01:45:28;;;;;;;23.23;10.90;;;;;;;-6.15;100.00;100085.63;5096325;28;20040;-75
2022/01/07 01:48:12;;;;;;;29.15;10.77;;;;;;;-6.14;100.00;100094.16;5097193;28;20036;-75
2022/01/07 01:50:57;;;;;;;24.25;9.73;;;;;;;-6.19;100.00;100081.19;5096273;28;20051;-75
2022/01/07 01:53:42;;;;;;;30.65;11.10;;;;;;;-6.14;100.00;100087.38;5075920;28;20353;-75
2022/01/07 01:56:27;;;;;;;27.95;11.35;;;;;;;-6.07;100.00;100098.75;5076658;28;20041;-75
2022/01/07 01:59:11;;;;;;;33.17;11.27;;;;;;;-6.19;100.00;100081.19;5076692;28;20429;-75
2022/01/07 02:01:57;;;;;;;33.10;11.52;;;;;;;-6.12;100.00;100090.00;5062028;28;20173;-75
2022/01/07 02:04:42;;;;;;;32.65;11.27;;;;;;;-6.08;100.00;100101.19;5075803;28;20048;-75
2022/01/07 02:07:27;;;;;;;29.50;12.32;;;;;;;-6.18;100.00;100092.25;5076512;28;20044;-75
2022/01/07 02:10:15;;;;;;;27.20;10.30;;;;;;;-6.17;100.00;100097.44;5076547;28;20070;-75
2022/01/07 02:12:59;;;;;;;26.65;9.50;;;;;;;-6.33;100.00;100077.13;5075655;28;20090;-75
2022/01/07 02:15:44;;;;;;;21.45;9.45;;;;;;;-6.17;100.00;100096.56;5076381;28;20345;-75
2022/01/07 02:18:28;;;;;;;29.38;10.27;;;;;;;-6.18;100.00;100094.81;5075785;28;20047;-75
2022/01/07 02:21:14;;;;;;;37.03;10.90;;;;;;;-6.24;100.00;100094.50;5075628;28;20040;-75
2022/01/07 02:23:59;;;;;;;24.58;9.40;;;;;;;-6.16;100.00;100095.75;5075489;28;20079;-75
2022/01/07 02:26:47;;;;;;;88.13;21.35;;;;;;;-6.12;100.00;100093.41;5075408;28;20044;-75
2022/01/07 02:29:31;;;;;;;345.10;90.32;;;;;;;-5.97;100.00;100110.25;5075472;28;20041;-75
2022/01/07 02:32:17;;;;;;;378.70;126.00;;;;;;;-5.99;100.00;100099.06;5076233;28;20036;-75
2022/01/07 02:35:04;;;;;;;305.10;108.05;;;;;;;-5.97;100.00;100094.94;5075432;28;20040;-75
2022/01/07 02:37:49;;;;;;;179.55;65.40;;;;;;;-5.96;100.00;100094.13;5076039;28;20040;-75
2022/01/07 02:40:34;;;;;;;120.95;45.70;;;;;;;-5.97;100.00;100080.50;5061185;28;20051;-75
2022/01/07 02:43:18;;;;;;;105.18;37.92;;;;;;;-5.92;100.00;100088.31;5075390;28;20041;-75
2022/01/07 02:46:03;;;;;;;86.00;31.00;;;;;;;-5.97;100.00;100087.28;5061139;28;20074;-75
2022/01/07 02:48:47;;;;;;;67.68;26.95;;;;;;;-5.97;100.00;100083.03;5075972;28;20047;-75
2022/01/07 02:51:31;;;;;;;49.58;19.27;;;;;;;-6.12;100.00;100062.81;5070458;28;20052;-75
2022/01/07 02:54:16;;;;;;;48.85;17.42;;;;;;;-6.04;100.00;100083.56;5116097;28;20043;-75
2022/01/07 02:57:00;;;;;;;40.42;14.82;;;;;;;-6.08;100.00;100079.13;5101338;28;20043;-75
2022/01/07 02:59:44;;;;;;;46.78;15.65;;;;;;;-6.08;100.00;100071.47;5101229;28;20151;-75
2022/01/07 03:02:29;;;;;;;41.55;15.68;;;;;;;-6.02;100.00;100069.19;5101492;28;20446;-75
2022/01/07 03:05:13;;;;;;;40.65;14.73;;;;;;;-6.02;100.00;100061.53;5087260;28;20043;-75
2022/01/07 03:07:58;;;;;;;34.97;14.18;;;;;;;-5.99;100.00;100065.91;5101263;28;20043;-75
2022/01/07 03:10:42;;;;;;;34.80;13.75;;;;;;;-6.06;100.00;100063.91;5086972;28;20039;-75
2022/01/07 03:13:26;;;;;;;31.63;12.07;;;;;;;-6.04;100.00;100073.38;5101355;28;20428;-75
2022/01/07 03:16:10;;;;;;;25.85;11.13;;;;;;;-6.03;100.00;100077.66;5087074;28;20432;-75
2022/01/07 03:18:55;;;;;;;29.08;10.55;;;;;;;-6.10;100.00;100072.22;5116150;28;20055;-75
2022/01/07 03:21:39;;;;;;;25.42;10.90;;;;;;;-6.21;100.00;100069.16;5101239;28;20048;-75
2022/01/07 03:24:23;;;;;;;23.70;9.52;;;;;;;-6.14;100.00;100069.53;5101081;28;20586;-75
2022/01/07 03:27:08;;;;;;;23.92;8.80;;;;;;;-6.17;100.00;100065.97;5116197;28;20042;-75
2022/01/07 03:29:52;;;;;;;26.52;9.68;;;;;;;-6.14;100.00;100074.63;5116136;28;20047;-75
2022/01/07 03:32:36;;;;;;;25.98;10.48;;;;;;;-6.19;100.00;100058.22;5100965;28;20035;-75
2022/01/07 03:35:21;;;;;;;22.50;9.55;;;;;;;-6.22;100.00;100049.56;5101225;28;20043;-75
2022/01/07 03:38:07;;;;;;;30.70;11.30;;;;;;;-6.23;100.00;100051.25;5101184;28;20428;-75
2022/01/07 03:40:51;;;;;;;25.42;10.25;;;;;;;-6.24;100.00;100053.72;5100848;28;20039;-75
2022/01/07 03:43:36;;;;;;;28.70;10.95;;;;;;;-6.28;100.00;100060.34;5115895;28;20063;-75
2022/01/07 03:46:20;;;;;;;23.98;8.60;;;;;;;-6.27;100.00;100064.69;5100823;28;20054;-75
2022/01/07 03:49:05;;;;;;;25.65;9.95;;;;;;;-6.31;100.00;100055.13;5098186;28;20048;-75
2022/01/07 03:51:49;;;;;;;26.60;10.23;;;;;;;-6.33;100.00;100060.97;5114997;28;20117;-75
2022/01/07 03:54:33;;;;;;;25.52;10.30;;;;;;;-6.31;100.00;100061.91;5100908;28;20039;-75
2022/01/07 03:57:19;;;;;;;25.67;10.55;;;;;;;-6.41;100.00;100043.63;5115899;28;20108;-75
2022/01/07 04:00:09;;;;;;;25.05;10.20;;;;;;;-6.45;100.00;100066.38;5100790;28;20039;-75
2022/01/07 04:02:56;;;;;;;16.15;7.13;;;;;;;-6.45;100.00;100063.81;5115824;28;20039;-75
2022/01/07 04:05:40;;;;;;;24.88;10.13;;;;;;;-6.41;100.00;100065.69;5069664;28;20082;-75
2022/01/07 04:08:25;;;;;;;22.10;9.77;;;;;;;-6.39;100.00;100064.09;5104211;28;20032;-75
2022/01/07 04:11:10;;;;;;;25.17;9.45;;;;;;;-6.35;100.00;100071.06;5119631;28;20040;-75
2022/01/07 04:13:55;;;;;;;24.67;9.63;;;;;;;-6.37;100.00;100049.72;5104305;28;20039;-75
2022/01/07 04:16:39;;;;;;;27.25;9.50;;;;;;;-6.33;100.00;100059.28;5104231;28;20040;-75
2022/01/07 04:19:23;;;;;;;24.00;9.73;;;;;;;-6.28;100.00;100069.69;5118668;28;20040;-74
2022/01/07 04:22:08;;;;;;;22.95;9.07;;;;;;;-6.22;100.00;100065.75;5104389;28;20049;-75
2022/01/07 04:24:52;;;;;;;26.92;9.30;;;;;;;-6.19;100.00;100058.22;5132943;27;20046;-75
2022/01/07 04:27:36;;;;;;;23.60;8.75;;;;;;;-6.25;100.00;100044.34;5089698;28;20101;-75
2022/01/07 04:30:22;;;;;;;24.73;8.07;;;;;;;-6.06;100.00;100072.41;5089797;28;20348;-74
2022/01/07 04:33:09;;;;;;;21.58;8.13;;;;;;;-6.05;100.00;100053.75;5086983;28;20056;-75
2022/01/07 04:35:54;;;;;;;29.33;8.57;;;;;;;-6.05;100.00;100052.88;5089698;28;20039;-75
2022/01/07 04:38:38;;;;;;;21.05;8.27;;;;;;;-6.02;100.00;100053.88;5089455;28;20417;-75
2022/01/07 04:41:23;;;;;;;20.05;7.80;;;;;;;-5.97;100.00;100047.31;5118892;28;20047;-75
2022/01/07 04:44:07;;;;;;;19.35;8.07;;;;;;;-5.99;100.00;100040.41;5118937;28;20035;-75
2022/01/07 04:46:52;;;;;;;16.75;7.32;;;;;;;-5.89;100.00;100037.41;5118732;28;20356;-75
2022/01/07 04:49:37;;;;;;;17.45;7.50;;;;;;;-5.78;100.00;100049.00;5089347;28;20043;-75
2022/01/07 04:52:22;;;;;;;19.00;7.50;;;;;;;-5.73;100.00;100038.97;5103596;28;20067;-75
2022/01/07 04:55:07;;;;;;;20.98;6.63;;;;;;;-5.61;100.00;100046.28;5118735;28;20097;-75
2022/01/07 04:57:52;;;;;;;17.58;6.10;;;;;;;-5.62;100.00;100040.31;5089241;28;20046;-75
2022/01/07 05:00:38;;;;;;;15.80;6.15;;;;;;;-5.46;100.00;100052.94;5103383;28;20094;-75
2022/01/07 05:03:22;;;;;;;13.95;5.55;;;;;;;-5.49;100.00;100041.69;5118490;28;20046;-75
2022/01/07 05:09:19;;;;;;;16.02;5.80;;;;;;;-5.49;100.00;100039.13;5118402;28;20047;-75
2022/01/07 05:12:04;;;;;;;21.45;7.40;;;;;;;-5.46;100.00;100047.84;5118271;28;20085;-74
2022/01/07 05:14:49;;;;;;;17.33;6.68;;;;;;;-5.52;100.00;100045.00;5103188;28;20040;-75
2022/01/07 05:17:33;;;;;;;19.88;6.97;;;;;;;-5.50;100.00;100035.72;5086006;28;20055;-75
2022/01/07 05:20:18;;;;;;;15.02;5.80;;;;;;;-5.47;100.00;100037.53;5103206;28;20092;-75
2022/01/07 05:23:03;;;;;;;12.82;5.55;;;;;;;-5.47;100.00;100029.88;5103143;28;20039;-75
2022/01/07 05:25:47;;;;;;;13.60;5.88;;;;;;;-5.54;100.00;100017.66;5120019;27;20047;-75
2022/01/07 05:28:31;;;;;;;13.63;5.82;;;;;;;-5.47;100.00;100032.44;5102918;28;20126;-75
2022/01/07 05:31:18;;;;;;;15.05;6.22;;;;;;;-5.53;100.00;100035.59;5088694;28;20036;-75
2022/01/07 05:34:02;;;;;;;15.55;6.20;;;;;;;-5.56;100.00;100021.81;5102687;28;20035;-75
2022/01/07 05:36:47;;;;;;;17.10;6.93;;;;;;;-5.52;100.00;100028.84;5102739;28;20340;-75
2022/01/07 05:39:31;;;;;;;25.23;7.45;;;;;;;-5.50;100.00;100025.50;5102635;28;20058;-75
2022/01/07 05:42:16;;;;;;;19.38;7.55;;;;;;;-5.47;100.00;100030.75;5099987;28;20062;-75
2022/01/07 05:45:00;;;;;;;20.88;7.60;;;;;;;-5.46;100.00;100024.84;5087589;28;20115;-75
2022/01/07 05:47:44;;;;;;;16.83;6.40;;;;;;;-5.46;100.00;100019.75;5100629;28;20040;-74
2022/01/07 05:50:29;;;;;;;14.93;6.50;;;;;;;-5.40;100.00;100026.78;5100819;28;20047;-75
2022/01/07 05:53:14;;;;;;;17.02;7.57;;;;;;;-5.40;100.00;100014.00;5100884;28;20051;-75
2022/01/07 05:55:58;;;;;;;20.50;7.78;;;;;;;-5.40;100.00;100014.00;5116092;28;20122;-75
2022/01/07 05:58:43;;;;;;;16.20;6.63;;;;;;;-5.29;100.00;100017.91;5129773;27;20059;-75
2022/01/07 06:01:27;;;;;;;13.93;6.15;;;;;;;-5.27;100.00;100021.38;5116226;28;20035;-75
2022/01/07 06:04:12;;;;;;;25.90;8.45;;;;;;;-5.22;100.00;100024.13;5117348;28;20036;-75
2022/01/07 06:06:56;;;;;;;30.98;10.70;;;;;;;-5.21;100.00;100021.63;5101923;28;20039;-75
2022/01/07 06:09:40;;;;;;;32.97;12.43;;;;;;;-5.10;100.00;100021.19;5115329;28;20465;-75
2022/01/07 06:12:24;;;;;;;41.50;14.38;;;;;;;-5.02;100.00;100012.16;5100200;28;20186;-75
2022/01/07 06:15:09;;;;;;;40.92;13.70;;;;;;;-5.02;100.00;99996.84;5100258;28;20058;-75
2022/01/07 06:17:53;;;;;;;43.17;14.93;;;;;;;-5.01;100.00;99991.78;5085874;28;20170;-75
2022/01/07 06:20:38;;;;;;;43.22;14.23;;;;;;;-4.88;100.00;100005.91;5100399;28;20039;-77
2022/01/07 06:23:22;;;;;;;40.05;14.68;;;;;;;-4.88;100.00;99999.94;5085867;28;20424;-77
2022/01/07 06:26:07;;;;;;;51.85;17.95;;;;;;;-4.86;100.00;100004.31;5099979;28;20059;-77
2022/01/07 06:28:51;;;;;;;60.03;20.73;;;;;;;-4.95;100.00;99999.69;5085314;28;20036;-77
2022/01/07 06:31:36;;;;;;;76.75;25.73;;;;;;;-4.88;100.00;100010.16;5114864;28;20040;-77
2022/01/07 06:34:20;;;;;;;126.68;38.60;;;;;;;-4.90;100.00;100015.22;5085500;28;20039;-76
2022/01/07 06:37:05;;;;;;;145.55;48.05;;;;;;;-5.03;100.00;99990.00;5114628;28;20112;-77
2022/01/07 06:39:49;;;;;;;209.80;66.28;;;;;;;-4.97;100.00;100003.88;5101084;28;20122;-77
2022/01/07 06:42:34;;;;;;;240.63;75.10;;;;;;;-4.93;100.00;100009.97;5083386;28;20047;-77
2022/01/07 06:45:19;;;;;;;193.27;68.68;;;;;;;-5.07;100.00;99999.22;5113776;28;20047;-77
2022/01/07 06:48:03;;;;;;;160.98;57.72;;;;;;;-4.90;100.00;99999.88;5085039;28;20058;-77
2022/01/07 06:50:48;;;;;;;112.25;41.92;;;;;;;-4.81;100.00;100009.59;5098682;28;20051;-77
2022/01/07 06:53:32;;;;;;;84.03;33.40;;;;;;;-4.77;100.00;100020.00;5099695;28;20040;-77
2022/01/07 06:56:17;;;;;;;104.38;38.88;;;;;;;-4.92;100.00;99998.94;5085441;28;20420;-77
2022/01/07 06:59:01;;;;;;;101.30;37.22;;;;;;;-4.85;100.00;100007.72;5117065;28;20051;-77
2022/01/07 07:01:47;;;;;;;67.57;28.13;;;;;;;-4.86;100.00;100003.44;5101710;28;20043;-77
2022/01/07 07:04:32;;;;;;;73.10;27.05;;;;;;;-4.80;100.00;100021.56;5102026;28;20100;-77
2022/01/07 07:07:17;;;;;;;110.25;38.65;;;;;;;-4.79;100.00;100026.72;5130688;28;20082;-77
2022/01/07 07:10:02;;;;;;;64.10;24.15;;;;;;;-4.63;100.00;100042.69;5101458;28;20167;-77
2022/01/07 07:12:46;;;;;;;44.38;17.98;;;;;;;-4.78;100.00;100009.69;5101365;28;20358;-77
2022/01/07 07:15:30;;;;;;;44.78;16.88;;;;;;;-4.75;100.00;100017.50;5087195;28;20036;-77
2022/01/07 07:18:15;;;;;;;31.05;14.32;;;;;;;-4.64;100.00;100046.06;5116693;28;20039;-77
2022/01/07 07:20:59;;;;;;;25.85;11.27;;;;;;;-4.76;100.00;100020.88;5087100;28;20080;-77
2022/01/07 07:23:44;;;;;;;23.85;10.07;;;;;;;-4.74;100.00;100020.13;5116387;28;20054;-77
2022/01/07 07:26:29;;;;;;;23.77;9.40;;;;;;;-4.55;100.00;100052.41;5101288;28;20043;-77
2022/01/07 07:29:13;;;;;;;21.55;9.63;;;;;;;-4.55;100.00;100043.84;5086978;28;20051;-77
2022/01/07 07:31:59;;;;;;;20.95;9.77;;;;;;;-4.53;100.00;100037.97;5087295;28;20051;-77
2022/01/07 07:34:57;;;;;;;23.23;11.05;;;;;;;-4.51;100.00;100017.59;5116508;28;20420;-77
2022/01/07 07:37:42;;;;;;;25.17;10.57;;;;;;;-4.38;100.00;100029.16;5116199;28;20036;-77
2022/01/07 07:40:26;;;;;;;25.83;11.15;;;;;;;-4.44;100.00;100001.66;5087076;28;20356;-76
2022/01/07 07:43:11;;;;;;;24.95;11.90;;;;;;;-4.49;100.00;99980.16;5104915;28;20036;-77
2022/01/07 07:45:56;;;;;;;28.02;13.13;;;;;;;-4.34;100.00;100006.31;5091231;28;20081;-77
2022/01/07 07:48:40;;;;;;;20.08;10.15;;;;;;;-4.19;100.00;100011.16;5107431;27;20055;-77
2022/01/07 07:51:25;;;;;;;21.48;10.57;;;;;;;-4.28;100.00;99991.19;5105209;28;20051;-77
2022/01/07 07:54:10;;;;;;;22.88;9.77;;;;;;;-4.11;100.00;100008.84;5133762;27;20398;-77
2022/01/07 07:56:57;;;;;;;19.48;9.02;;;;;;;-4.10;100.00;99996.09;5087878;28;20055;-77
2022/01/07 07:59:42;;;;;;;21.83;8.52;;;;;;;-4.06;100.00;99997.97;5087462;28;20051;-77
2022/01/07 08:02:30;;;;;;;20.45;7.10;;;;;;;-3.92;100.00;100003.59;5133750;27;20043;-77
2022/01/07 08:05:14;;;;;;;16.92;7.32;;;;;;;-3.88;100.00;99989.22;5090504;28;20046;-77
2022/01/07 08:08:02;;;;;;;17.13;7.35;;;;;;;-3.79;100.00;99982.72;5119546;28;20039;-77
2022/01/07 08:10:51;;;;;;;19.27;8.23;;;;;;;-3.74;100.00;99953.84;5090922;28;20043;-77
2022/01/07 08:16:52;;;;;;;13.60;6.80;;;;;;;-2.90;100.00;99993.38;5079149;28;20091;-78
2022/01/07 08:19:37;;;;;;;17.50;7.75;;;;;;;-2.36;100.00;99988.22;5090016;28;20031;-78
2022/01/07 08:22:21;;;;;;;15.82;7.53;;;;;;;-1.93;100.00;99980.88;5119957;28;20466;-78
2022/01/07 08:25:05;;;;;;;16.00;8.35;;;;;;;-1.77;100.00;99966.75;5090507;28;20043;-78
2022/01/07 08:27:50;;;;;;;19.73;8.35;;;;;;;-1.69;100.00;99965.25;5104196;28;20468;-78
2022/01/07 08:30:58;;;;;;;25.45;11.00;;;;;;;-1.51;100.00;99981.16;5087222;28;20130;-78
2022/01/07 08:36:45;;;;;;;22.90;12.07;;;;;;;-1.61;100.00;99976.59;5119723;28;20114;-78
2022/01/07 08:39:29;;;;;;;26.63;13.82;;;;;;;-1.66;100.00;99968.78;5132910;27;20069;-78
2022/01/07 08:42:14;;;;;;;31.80;16.70;;;;;;;-1.58;100.00;99978.41;5104485;28;20074;-77
2022/01/07 08:44:59;;;;;;;27.35;11.73;;;;;;;-1.39;100.00;99990.03;5104457;28;20051;-78
2022/01/07 08:47:43;;;;;;;24.63;9.23;;;;;;;-1.42;100.00;99978.81;5089572;28;20040;-78
2022/01/07 08:50:28;;;;;;;63.33;21.08;;;;;;;-1.42;100.00;99952.28;5086934;28;20047;-78
2022/01/07 08:53:12;;;;;;;53.97;17.65;;;;;;;-0.88;100.00;99984.41;5088637;28;20087;-78
2022/01/07 08:55:57;;;;;;;43.75;14.60;;;;;;;-0.56;100.00;99969.72;5089966;28;20047;-79
2022/01/07 08:58:42;;;;;;;53.58;15.68;;;;;;;-0.22;100.00;99966.19;5103541;28;20070;-78
2022/01/07 09:01:28;;;;;;;54.38;17.58;;;;;;;0.17;100.00;99979.00;5118980;28;20147;-78
2022/01/07 09:04:13;;;;;;;45.50;14.43;;;;;;;0.36;100.00;99945.84;5104056;28;20119;-79
2022/01/07 09:06:57;;;;;;;30.40;11.95;;;;;;;0.86;100.00;99982.81;5089541;28;20036;-79
2022/01/07 09:09:41;;;;;;;28.67;10.25;;;;;;;1.07;100.00;99947.88;5103918;28;20122;-80
2022/01/07 09:12:26;;;;;;;31.27;11.90;;;;;;;1.23;100.00;99967.91;5132278;27;20088;-80
2022/01/07 09:15:10;;;;;;;28.88;11.75;;;;;;;1.39;100.00;99993.09;5117397;28;20031;-80
2022/01/07 09:17:55;;;;;;;30.55;11.52;;;;;;;1.52;100.00;99981.25;5117577;28;20048;-80
2022/01/07 09:20:45;;;;;;;23.00;8.82;;;;;;;1.69;100.00;99991.84;5088807;28;20402;-80
2022/01/07 09:23:29;;;;;;;27.85;10.27;;;;;;;1.61;100.00;99986.53;5088998;28;20039;-81
2022/01/07 09:26:14;;;;;;;38.85;14.77;;;;;;;1.59;100.00;99979.63;5071719;28;20416;-80
2022/01/07 09:28:59;;;;;;;40.00;16.10;;;;;;;1.51;100.00;99966.63;5101345;28;20040;-80
2022/01/07 09:31:43;;;;;;;53.05;23.70;;;;;;;1.53;100.00;99982.16;5101790;28;20089;-80
2022/01/07 09:34:28;;;;;;;55.63;23.88;;;;;;;1.45;100.00;99976.84;5101121;28;20085;-80
2022/01/07 09:37:13;;;;;;;41.85;18.00;;;;;;;1.65;100.00;99974.53;5101003;28;20043;-80
2022/01/07 09:40:00;;;;;;;32.05;12.57;;;;;;;1.58;100.00;99962.41;5100870;28;20321;-80
2022/01/07 09:43:05;;;;;;;28.80;12.30;;;;;;;1.58;100.00;99962.41;5100939;28;20044;-81
2022/01/07 09:45:50;;;;;;;68.07;35.10;;;;;;;1.63;100.00;99960.75;5100833;28;20047;-81
2022/01/07 09:48:35;;;;;;;40.58;23.20;;;;;;;1.57;100.00;99971.88;5100766;28;20444;-80
2022/01/07 09:51:20;;;;;;;25.08;14.80;;;;;;;1.69;100.00;99957.38;5115554;28;20623;-80
2022/01/07 09:54:05;;;;;;;36.92;22.30;;;;;;;1.92;100.00;99952.50;5100662;28;20042;-80
2022/01/07 09:56:51;;;;;;;27.15;16.55;;;;;;;1.94;100.00;99963.72;5100617;28;20425;-81
2022/01/07 09:59:37;;;;;;;19.58;9.73;;;;;;;2.08;100.00;99954.41;5100476;28;20130;-80
2022/01/07 10:02:23;;;;;;;13.90;6.45;;;;;;;1.69;100.00;99952.22;5116491;28;20100;-80
2022/01/07 10:05:16;;;;;;;19.10;7.10;;;;;;;1.49;100.00;99946.78;5087269;28;20048;-80
2022/01/07 10:08:21;;;;;;;16.85;6.85;;;;;;;1.53;100.00;99941.69;5102415;28;20054;-80
2022/01/07 10:11:20;;;;;;;19.13;7.72;;;;;;;1.39;100.00;99940.63;5102533;28;20047;-79
2022/01/07 10:14:22;;;;;;;25.25;8.68;;;;;;;1.56;100.00;99933.09;5099484;28;20062;-80
2022/01/07 10:17:07;;;;;;;22.85;9.40;;;;;;;1.26;100.00;99916.34;5102019;28;20104;-79
2022/01/07 10:19:53;;;;;;;13.63;6.35;;;;;;;1.47;100.00;99920.09;5117103;28;20044;-80
2022/01/07 10:22:54;;;;;;;16.17;6.60;;;;;;;1.54;100.00;99922.78;5119133;27;20055;-80
2022/01/07 10:25:44;;;;;;;115.88;42.28;;;;;;;1.68;100.00;99919.50;5102276;28;20043;-80
2022/01/07 10:28:32;;;;;;;62.25;31.55;;;;;;;1.67;100.00;99917.78;5117378;28;20051;-80
2022/01/07 10:31:24;;;;;;;50.20;23.95;;;;;;;1.62;100.00;99910.81;5102351;28;20108;-80
2022/01/07 10:34:08;;;;;;;152.02;60.20;;;;;;;1.64;100.00;99895.34;5087610;28;20044;-80
2022/01/07 10:36:53;;;;;;;280.55;111.32;;;;;;;1.68;100.00;99899.69;5116898;28;20039;-81
2022/01/07 10:39:37;;;;;;;263.45;113.05;;;;;;;1.76;100.00;99899.81;5101975;28;20119;-80
2022/01/07 10:42:24;;;;;;;124.90;56.30;;;;;;;1.74;100.00;99899.78;5087664;28;20092;-80
2022/01/07 10:45:09;;;;;;;97.45;50.05;;;;;;;1.67;100.00;99895.41;5101714;28;20036;-80
2022/01/07 10:47:53;;;;;;;21.50;10.70;;;;;;;1.69;100.00;99897.97;5101769;28;20436;-81
2022/01/07 10:50:47;;;;;;;21.48;8.43;;;;;;;1.69;100.00;99893.72;5087808;28;20055;-80
2022/01/07 10:53:32;;;;;;;18.17;8.43;;;;;;;1.85;100.00;99898.22;5087362;28;20348;-80
2022/01/07 10:56:19;;;;;;;46.20;21.05;;;;;;;1.96;100.00;99906.06;5084756;28;20088;-81
2022/01/07 10:59:23;;;;;;;24.52;11.38;;;;;;;2.09;100.00;99907.06;5113234;28;20108;-81
2022/01/07 11:02:08;;;;;;;17.02;7.97;;;;;;;2.14;100.00;99901.94;5116608;28;20093;-80
2022/01/07 11:04:52;;;;;;;13.60;5.45;;;;;;;2.24;100.00;99891.72;5116990;28;20458;-80
2022/01/07 11:07:37;;;;;;;16.13;6.32;;;;;;;2.31;100.00;99900.41;5116905;28;20110;-80
2022/01/07 11:10:22;;;;;;;10.82;4.53;;;;;;;2.36;100.00;99898.72;5101296;28;20405;-81
2022/01/07 11:13:07;;;;;;;16.33;5.07;;;;;;;2.47;100.00;99897.13;5101829;28;20039;-80
2022/01/07 11:15:51;;;;;;;9.85;4.25;;;;;;;2.36;100.00;99896.13;5117546;28;20065;-80
2022/01/07 11:18:40;;;;;;;15.07;5.80;;;;;;;2.47;100.00;99879.03;5120104;28;20063;-80
2022/01/07 11:21:25;;;;;;;12.63;5.85;;;;;;;2.50;100.00;99880.75;5091253;28;20035;-80
2022/01/07 11:24:42;;;;;;;11.65;5.35;;;;;;;2.62;100.00;99885.16;5134322;27;20040;-80
2022/01/07 11:27:27;;;;;;;15.30;5.85;;;;;;;2.47;100.00;99876.44;5105524;28;20050;-80
2022/01/07 11:30:15;;;;;;;14.93;7.05;;;;;;;2.51;100.00;99874.75;5120402;28;20136;-81
2022/01/07 11:33:00;;;;;;;11.65;5.50;;;;;;;2.46;100.00;99863.47;5090966;28;20360;-81
2022/01/07 11:35:47;;;;;;;23.65;9.00;;;;;;;2.63;100.00;99879.13;5105244;28;20060;-81
2022/01/07 11:38:34;;;;;;;27.08;11.38;;;;;;;2.70;100.00;99876.63;5090849;28;20040;-80
2022/01/07 11:42:07;;;;;;;12.00;6.28;;;;;;;2.78;100.00;99881.84;5105389;28;20430;-81
2022/01/07 11:44:52;;;;;;;13.77;6.35;;;;;;;2.65;100.00;99870.53;5119643;28;20040;-80
2022/01/07 11:47:49;;;;;;;14.57;6.75;;;;;;;2.61;100.00;99842.06;5090948;28;20040;-81
2022/01/07 11:50:57;;;;;;;19.90;8.45;;;;;;;2.79;100.00;99868.94;5119383;28;20062;-81
2022/01/07 11:53:42;;;;;;;14.13;7.35;;;;;;;2.67;100.00;99863.66;5105489;28;20086;-82
2022/01/07 11:56:29;;;;;;;13.75;6.32;;;;;;;2.60;100.00;99850.66;5090938;28;20052;-81
2022/01/07 11:59:16;;;;;;;11.02;5.75;;;;;;;2.45;100.00;99862.63;5090960;28;20036;-81
2022/01/07 12:02:04;;;;;;;12.45;5.25;;;;;;;2.30;100.00;99855.56;5073833;28;20387;-81
2022/01/07 12:04:49;;;;;;;16.10;6.13;;;;;;;2.23;100.00;99851.22;5090999;28;20040;-80
2022/01/07 12:07:54;;;;;;;13.63;6.15;;;;;;;2.30;100.00;99846.97;5119530;28;20045;-81
2022/01/07 12:10:39;;;;;;;13.63;5.43;;;;;;;2.19;100.00;99840.84;5133434;27;20040;-82
2022/01/07 12:13:27;;;;;;;17.92;7.57;;;;;;;2.04;100.00;99837.25;5120095;28;20040;-81
2022/01/07 12:16:12;;;;;;;15.30;5.53;;;;;;;1.98;100.00;99836.31;5090695;28;20123;-81
2022/01/07 12:19:37;;;;;;;14.63;6.40;;;;;;;1.98;100.00;99832.03;5119407;28;20031;-81
2022/01/07 12:22:21;;;;;;;20.02;7.90;;;;;;;1.86;100.00;99832.78;5090078;28;20093;-81
2022/01/07 12:25:06;;;;;;;20.20;7.32;;;;;;;1.89;100.00;99818.16;5107023;27;20055;-81
2022/01/07 12:27:59;;;;;;;26.73;9.48;;;;;;;1.76;100.00;99827.50;5118968;28;20100;-82
2022/01/07 12:30:44;;;;;;;24.58;8.80;;;;;;;1.81;100.00;99818.06;5090105;28;20066;-81
2022/01/07 12:33:28;;;;;;;28.25;9.98;;;;;;;1.77;100.00;99818.88;5119791;28;20046;-82
2022/01/07 12:36:13;;;;;;;32.63;13.05;;;;;;;1.81;100.00;99821.50;5104127;28;20093;-82
2022/01/07 12:39:09;;;;;;;22.70;9.35;;;;;;;1.73;100.00;99819.72;5104382;28;20044;-81
2022/01/07 12:41:55;;;;;;;25.00;9.93;;;;;;;1.71;100.00;99819.69;5119401;28;20055;-81
2022/01/07 12:44:57;;;;;;;157.45;48.55;;;;;;;1.75;100.00;99810.25;5103906;28;20047;-82